createdAt,value
2023-03-18T00:09:39.550Z,1012.16
2023-03-18T00:19:44.942Z,1012.18
2023-03-18T00:29:50.134Z,1012.11
2023-03-18T00:39:55.408Z,1012.04
2023-03-18T00:50:00.832Z,1012.03
2023-03-18T01:00:06.330Z,1012.08
2023-03-18T01:10:11.399Z,1012.00
2023-03-18T01:20:16.562Z,1011.96
2023-03-18T01:30:22.120Z,1011.90
2023-03-18T01:40:27.539Z,1011.84
2023-03-18T01:50:33.338Z,1011.79
2023-03-18T02:00:38.661Z,1011.85
2023-03-18T02:10:44.158Z,1011.86
2023-03-18T02:20:49.812Z,1011.89
2023-03-18T02:30:55.040Z,1011.82
2023-03-18T02:41:00.109Z,1011.83
2023-03-18T02:51:05.702Z,1011.76
2023-03-18T03:01:11.141Z,1011.72
2023-03-18T03:11:16.481Z,1011.64
2023-03-18T03:21:21.532Z,1011.77
2023-03-18T03:31:26.421Z,1011.85
2023-03-18T03:41:31.750Z,1011.97
2023-03-18T03:51:37.078Z,1011.88
2023-03-18T04:01:42.316Z,1011.79
2023-03-18T04:11:47.185Z,1011.85
2023-03-18T04:21:52.303Z,1011.91
2023-03-18T04:31:57.534Z,1012.04
2023-03-18T04:42:02.874Z,1012.06
2023-03-18T04:52:07.880Z,1012.15
2023-03-18T05:02:13.231Z,1012.18
2023-03-18T05:12:18.304Z,1012.17
2023-03-18T05:22:23.577Z,1012.19
2023-03-18T05:32:29.005Z,1012.25
2023-03-18T05:42:38.635Z,1012.26
2023-03-18T05:52:44.815Z,1012.37
2023-03-18T06:02:50.015Z,1012.36
2023-03-18T06:12:55.429Z,1012.36
2023-03-18T06:23:00.957Z,1012.40
2023-03-18T06:33:06.161Z,1012.46
2023-03-18T06:43:11.458Z,1012.59
2023-03-18T06:53:16.853Z,1012.63
2023-03-18T07:03:22.054Z,1012.74
2023-03-18T07:13:27.463Z,1012.92
2023-03-18T07:23:32.908Z,1013.02
2023-03-18T07:33:38.247Z,1012.91
2023-03-18T07:43:43.441Z,1013.09
2023-03-18T07:53:48.814Z,1013.20
2023-03-18T08:03:53.961Z,1013.28
2023-03-18T08:13:59.379Z,1013.34
2023-03-18T08:24:04.680Z,1013.36
2023-03-18T08:34:09.657Z,1013.36
2023-03-18T08:44:15.081Z,1013.47
2023-03-18T08:54:20.367Z,1013.50
2023-03-18T09:04:25.650Z,1013.35
2023-03-18T09:14:30.869Z,1013.55
2023-03-18T09:24:36.050Z,1013.63
2023-03-18T09:34:41.072Z,1013.56
2023-03-18T09:44:46.080Z,1013.72
2023-03-18T09:54:51.188Z,1013.81
2023-03-18T10:04:56.650Z,1013.76
2023-03-18T10:15:01.886Z,1013.69
2023-03-18T10:25:07.267Z,1013.71
2023-03-18T10:35:12.455Z,1013.73
2023-03-18T10:45:17.540Z,1013.66
2023-03-18T10:55:23.050Z,1013.71
2023-03-18T11:05:28.508Z,1013.78
2023-03-18T11:15:33.734Z,1013.69
2023-03-18T11:25:39.093Z,1013.64
2023-03-18T11:35:43.975Z,1013.58
2023-03-18T11:45:49.536Z,1013.59
2023-03-18T11:55:55.122Z,1013.68
2023-03-18T12:06:00.687Z,1013.66
2023-03-18T12:16:06.130Z,1013.62
2023-03-18T12:26:11.256Z,1013.68
2023-03-18T12:36:16.419Z,1013.65
2023-03-18T12:46:21.582Z,1013.59
2023-03-18T12:56:26.730Z,1013.61
2023-03-18T13:06:32.197Z,1013.52
2023-03-18T13:16:37.763Z,1013.52
2023-03-18T13:26:43.587Z,1013.42
2023-03-18T13:36:49.422Z,1013.39
2023-03-18T13:46:54.405Z,1013.37
2023-03-18T13:56:59.694Z,1013.36
2023-03-18T14:07:04.689Z,1013.37
2023-03-18T14:17:10.077Z,1013.27
2023-03-18T14:27:15.372Z,1013.21
2023-03-18T14:37:20.718Z,1013.12
2023-03-18T14:47:38.239Z,1013.08
2023-03-18T14:57:35.850Z,1013.08
2023-03-18T15:07:41.636Z,1013.09
2023-03-18T15:17:48.130Z,1013.05
2023-03-18T15:27:53.351Z,1013.06
2023-03-18T15:37:58.478Z,1013.15
2023-03-18T15:48:03.202Z,1013.21
2023-03-18T15:58:08.185Z,1013.36
2023-03-18T16:08:13.792Z,1013.44
2023-03-18T16:18:19.026Z,1013.50
2023-03-18T16:28:24.307Z,1013.60
2023-03-18T16:38:29.600Z,1013.60
2023-03-18T16:48:35.002Z,1013.69
2023-03-18T16:58:40.207Z,1013.79
2023-03-18T17:08:45.624Z,1013.88
2023-03-18T17:18:50.856Z,1013.98
2023-03-18T17:28:56.119Z,1014.08
2023-03-18T17:39:01.558Z,1014.20
2023-03-18T17:49:06.789Z,1014.25
2023-03-18T17:59:12.320Z,1014.24
2023-03-18T18:09:17.830Z,1014.21
2023-03-18T18:19:23.687Z,1014.14
2023-03-18T18:29:29.271Z,1014.25
2023-03-18T18:39:34.464Z,1014.27
2023-03-18T18:49:40.156Z,1014.24
2023-03-18T18:59:45.634Z,1014.30
2023-03-18T19:09:50.666Z,1014.38
2023-03-18T19:19:56.538Z,1014.44
2023-03-18T19:30:01.878Z,1014.37
2023-03-18T19:40:07.391Z,1014.44
2023-03-18T19:50:13.161Z,1014.50
2023-03-18T20:00:18.494Z,1014.64
2023-03-18T20:10:23.982Z,1014.75
2023-03-18T20:20:30.074Z,1014.80
2023-03-18T20:30:35.746Z,1014.75
2023-03-18T20:40:41.417Z,1014.81
2023-03-18T20:50:46.639Z,1014.91
2023-03-18T21:00:51.887Z,1014.86
2023-03-18T21:10:58.551Z,1014.89
2023-03-18T21:21:05.916Z,1014.88
2023-03-18T21:31:11.831Z,1014.86
2023-03-18T21:41:17.301Z,1014.88
2023-03-18T21:51:37.484Z,1014.92
2023-03-18T22:01:32.742Z,1014.98
2023-03-18T22:11:38.447Z,1014.94
2023-03-18T22:21:43.962Z,1014.93
2023-03-18T22:31:49.384Z,1015.04
2023-03-18T22:41:54.739Z,1015.00
2023-03-18T22:52:01.930Z,1014.90
2023-03-18T23:02:07.557Z,1015.01
2023-03-18T23:12:12.905Z,1015.07
2023-03-18T23:22:17.996Z,1015.08
2023-03-18T23:32:23.792Z,1015.03
2023-03-18T23:42:28.866Z,1015.03
2023-03-18T23:52:34.904Z,1015.00
